sensor_id;sensor_type;location;lat;lon;timestamp;P1;durP1;ratioP1;P2;durP2;ratioP2
11924;SDS011;6022;48.768;18.608;2023-08-01T00:01:43;0.70;;;0.70;;
11924;SDS011;6022;48.768;18.608;2023-08-01T00:04:10;8.13;;;1.80;;
11924;SDS011;6022;48.768;18.608;2023-08-01T00:06:37;0.80;;;0.80;;
11924;SDS011;6022;48.768;18.608;2023-08-01T00:09:05;1.67;;;0.77;;
11924;SDS011;6022;48.768;18.608;2023-08-01T00:11:32;0.50;;;0.50;;
11924;SDS011;6022;48.768;18.608;2023-08-01T00:13:59;3.73;;;0.90;;
11924;SDS011;6022;48.768;18.608;2023-08-01T00:16:35;0.67;;;0.67;;
11924;SDS011;6022;48.768;18.608;2023-08-01T00:19:03;1.10;;;1.00;;
11924;SDS011;6022;48.768;18.608;2023-08-01T00:21:30;1.20;;;0.90;;
11924;SDS011;6022;48.768;18.608;2023-08-01T00:23:58;2.30;;;0.90;;
11924;SDS011;6022;48.768;18.608;2023-08-01T00:26:25;1.17;;;1.07;;
11924;SDS011;6022;48.768;18.608;2023-08-01T00:28:52;0.97;;;0.70;;
11924;SDS011;6022;48.768;18.608;2023-08-01T00:31:19;0.63;;;0.63;;
11924;SDS011;6022;48.768;18.608;2023-08-01T00:33:47;6.03;;;1.23;;
11924;SDS011;6022;48.768;18.608;2023-08-01T00:36:14;1.10;;;1.10;;
11924;SDS011;6022;48.768;18.608;2023-08-01T00:38:41;0.87;;;0.87;;
11924;SDS011;6022;48.768;18.608;2023-08-01T00:41:09;2.03;;;0.87;;
11924;SDS011;6022;48.768;18.608;2023-08-01T00:46:29;1.00;;;1.00;;
11924;SDS011;6022;48.768;18.608;2023-08-01T00:48:56;1.23;;;1.07;;
11924;SDS011;6022;48.768;18.608;2023-08-01T00:51:24;2.17;;;0.80;;
11924;SDS011;6022;48.768;18.608;2023-08-01T00:53:56;1.40;;;1.20;;
11924;SDS011;6022;48.768;18.608;2023-08-01T00:56:24;3.10;;;1.40;;
11924;SDS011;6022;48.768;18.608;2023-08-01T00:58:51;1.27;;;1.17;;
11924;SDS011;6022;48.768;18.608;2023-08-01T01:01:18;1.20;;;1.10;;
11924;SDS011;6022;48.768;18.608;2023-08-01T01:03:46;1.23;;;0.90;;
11924;SDS011;6022;48.768;18.608;2023-08-01T01:06:20;1.30;;;1.20;;
11924;SDS011;6022;48.768;18.608;2023-08-01T01:08:58;1.20;;;0.83;;
11924;SDS011;6022;48.768;18.608;2023-08-01T01:11:25;0.73;;;0.73;;
11924;SDS011;6022;48.768;18.608;2023-08-01T01:13:53;0.90;;;0.90;;
11924;SDS011;6022;48.768;18.608;2023-08-01T01:16:20;1.13;;;1.00;;
11924;SDS011;6022;48.768;18.608;2023-08-01T01:18:47;3.23;;;1.97;;
11924;SDS011;6022;48.768;18.608;2023-08-01T01:21:14;4.47;;;1.40;;
11924;SDS011;6022;48.768;18.608;2023-08-01T01:23:42;1.73;;;1.63;;
11924;SDS011;6022;48.768;18.608;2023-08-01T01:26:10;2.03;;;1.63;;
11924;SDS011;6022;48.768;18.608;2023-08-01T01:28:38;2.70;;;1.20;;
11924;SDS011;6022;48.768;18.608;2023-08-01T01:31:07;3.23;;;1.00;;
11924;SDS011;6022;48.768;18.608;2023-08-01T01:33:34;1.10;;;1.10;;
11924;SDS011;6022;48.768;18.608;2023-08-01T01:36:01;1.87;;;1.10;;
11924;SDS011;6022;48.768;18.608;2023-08-01T01:38:28;1.53;;;1.00;;
11924;SDS011;6022;48.768;18.608;2023-08-01T01:40:56;0.93;;;0.93;;
11924;SDS011;6022;48.768;18.608;2023-08-01T01:43:23;0.60;;;0.60;;
11924;SDS011;6022;48.768;18.608;2023-08-01T01:45:50;1.00;;;0.90;;
11924;SDS011;6022;48.768;18.608;2023-08-01T01:48:17;0.70;;;0.70;;
11924;SDS011;6022;48.768;18.608;2023-08-01T01:50:44;0.70;;;0.70;;
11924;SDS011;6022;48.768;18.608;2023-08-01T01:53:11;0.93;;;0.93;;
11924;SDS011;6022;48.768;18.608;2023-08-01T01:55:38;0.93;;;0.87;;
11924;SDS011;6022;48.768;18.608;2023-08-01T01:58:06;1.47;;;1.37;;
11924;SDS011;6022;48.768;18.608;2023-08-01T02:00:33;1.40;;;1.30;;
11924;SDS011;6022;48.768;18.608;2023-08-01T02:03:00;2.30;;;1.20;;
11924;SDS011;6022;48.768;18.608;2023-08-01T02:05:29;2.67;;;0.90;;
11924;SDS011;6022;48.768;18.608;2023-08-01T02:07:56;1.30;;;1.03;;
11924;SDS011;6022;48.768;18.608;2023-08-01T02:10:23;0.83;;;0.80;;
11924;SDS011;6022;48.768;18.608;2023-08-01T02:12:50;1.00;;;0.90;;
11924;SDS011;6022;48.768;18.608;2023-08-01T02:15:17;1.80;;;0.90;;
11924;SDS011;6022;48.768;18.608;2023-08-01T02:17:44;1.10;;;1.10;;
11924;SDS011;6022;48.768;18.608;2023-08-01T02:20:12;2.63;;;1.33;;
11924;SDS011;6022;48.768;18.608;2023-08-01T02:22:39;0.70;;;0.70;;
11924;SDS011;6022;48.768;18.608;2023-08-01T02:25:06;1.93;;;0.83;;
11924;SDS011;6022;48.768;18.608;2023-08-01T02:27:34;2.50;;;1.30;;
11924;SDS011;6022;48.768;18.608;2023-08-01T02:30:01;0.57;;;0.57;;
11924;SDS011;6022;48.768;18.608;2023-08-01T02:32:28;0.60;;;0.60;;
11924;SDS011;6022;48.768;18.608;2023-08-01T02:34:56;1.27;;;0.93;;
11924;SDS011;6022;48.768;18.608;2023-08-01T02:37:24;2.60;;;1.23;;
11924;SDS011;6022;48.768;18.608;2023-08-01T02:39:51;1.47;;;1.10;;
11924;SDS011;6022;48.768;18.608;2023-08-01T02:42:18;0.60;;;0.60;;
11924;SDS011;6022;48.768;18.608;2023-08-01T02:44:45;1.23;;;0.93;;
11924;SDS011;6022;48.768;18.608;2023-08-01T02:47:12;1.03;;;1.00;;
11924;SDS011;6022;48.768;18.608;2023-08-01T02:49:39;0.80;;;0.80;;
11924;SDS011;6022;48.768;18.608;2023-08-01T02:52:06;0.90;;;0.90;;
11924;SDS011;6022;48.768;18.608;2023-08-01T02:54:33;1.60;;;1.10;;
11924;SDS011;6022;48.768;18.608;2023-08-01T02:57:00;1.43;;;1.20;;
11924;SDS011;6022;48.768;18.608;2023-08-01T02:59:27;0.90;;;0.90;;
11924;SDS011;6022;48.768;18.608;2023-08-01T03:01:55;1.27;;;1.00;;
11924;SDS011;6022;48.768;18.608;2023-08-01T03:04:22;0.60;;;0.60;;
11924;SDS011;6022;48.768;18.608;2023-08-01T03:07:09;1.60;;;0.67;;
11924;SDS011;6022;48.768;18.608;2023-08-01T03:09:36;0.90;;;0.90;;
11924;SDS011;6022;48.768;18.608;2023-08-01T03:12:03;0.80;;;0.77;;
11924;SDS011;6022;48.768;18.608;2023-08-01T03:14:30;6.40;;;1.40;;
11924;SDS011;6022;48.768;18.608;2023-08-01T03:16:58;0.63;;;0.63;;
11924;SDS011;6022;48.768;18.608;2023-08-01T03:19:25;0.80;;;0.80;;
11924;SDS011;6022;48.768;18.608;2023-08-01T03:21:52;1.33;;;1.23;;
11924;SDS011;6022;48.768;18.608;2023-08-01T03:24:19;2.30;;;1.23;;
11924;SDS011;6022;48.768;18.608;2023-08-01T03:26:47;1.13;;;1.03;;
11924;SDS011;6022;48.768;18.608;2023-08-01T03:29:13;2.80;;;1.07;;
11924;SDS011;6022;48.768;18.608;2023-08-01T03:31:41;1.70;;;1.20;;
11924;SDS011;6022;48.768;18.608;2023-08-01T03:34:08;1.23;;;0.97;;
11924;SDS011;6022;48.768;18.608;2023-08-01T03:36:35;0.70;;;0.70;;
11924;SDS011;6022;48.768;18.608;2023-08-01T03:39:03;5.03;;;1.83;;
11924;SDS011;6022;48.768;18.608;2023-08-01T03:41:31;2.40;;;1.20;;
11924;SDS011;6022;48.768;18.608;2023-08-01T03:43:59;0.70;;;0.70;;
11924;SDS011;6022;48.768;18.608;2023-08-01T03:46:26;1.83;;;1.70;;
11924;SDS011;6022;48.768;18.608;2023-08-01T03:48:53;5.97;;;1.67;;
11924;SDS011;6022;48.768;18.608;2023-08-01T03:51:20;0.63;;;0.63;;
11924;SDS011;6022;48.768;18.608;2023-08-01T03:53:47;0.70;;;0.70;;
11924;SDS011;6022;48.768;18.608;2023-08-01T03:56:32;0.83;;;0.73;;
11924;SDS011;6022;48.768;18.608;2023-08-01T03:59:00;0.67;;;0.67;;
11924;SDS011;6022;48.768;18.608;2023-08-01T04:01:27;1.80;;;1.03;;
11924;SDS011;6022;48.768;18.608;2023-08-01T04:03:54;1.10;;;1.00;;
11924;SDS011;6022;48.768;18.608;2023-08-01T04:06:21;1.00;;;0.83;;
11924;SDS011;6022;48.768;18.608;2023-08-01T04:08:48;0.63;;;0.60;;
11924;SDS011;6022;48.768;18.608;2023-08-01T04:11:16;1.17;;;0.93;;
11924;SDS011;6022;48.768;18.608;2023-08-01T04:13:43;3.80;;;1.27;;
11924;SDS011;6022;48.768;18.608;2023-08-01T04:16:10;1.37;;;1.27;;
11924;SDS011;6022;48.768;18.608;2023-08-01T04:18:37;2.63;;;1.13;;
11924;SDS011;6022;48.768;18.608;2023-08-01T04:21:06;1.83;;;1.17;;
11924;SDS011;6022;48.768;18.608;2023-08-01T04:23:35;1.50;;;1.40;;
11924;SDS011;6022;48.768;18.608;2023-08-01T04:26:02;1.73;;;1.00;;
11924;SDS011;6022;48.768;18.608;2023-08-01T04:28:32;0.90;;;0.90;;
11924;SDS011;6022;48.768;18.608;2023-08-01T04:31:00;0.80;;;0.80;;
11924;SDS011;6022;48.768;18.608;2023-08-01T04:33:28;1.97;;;1.10;;
11924;SDS011;6022;48.768;18.608;2023-08-01T04:35:55;2.03;;;0.93;;
11924;SDS011;6022;48.768;18.608;2023-08-01T04:38:22;1.43;;;1.33;;
11924;SDS011;6022;48.768;18.608;2023-08-01T04:40:50;1.40;;;1.30;;
11924;SDS011;6022;48.768;18.608;2023-08-01T04:54:40;1.40;;;1.30;;
11924;SDS011;6022;48.768;18.608;2023-08-01T04:57:08;1.23;;;0.73;;
11924;SDS011;6022;48.768;18.608;2023-08-01T04:59:35;0.80;;;0.80;;
11924;SDS011;6022;48.768;18.608;2023-08-01T05:02:03;3.70;;;1.17;;
11924;SDS011;6022;48.768;18.608;2023-08-01T05:04:30;1.90;;;1.30;;
11924;SDS011;6022;48.768;18.608;2023-08-01T05:06:58;1.50;;;1.37;;
11924;SDS011;6022;48.768;18.608;2023-08-01T05:09:37;2.40;;;0.90;;
11924;SDS011;6022;48.768;18.608;2023-08-01T05:12:04;0.97;;;0.83;;
11924;SDS011;6022;48.768;18.608;2023-08-01T05:14:32;1.20;;;0.73;;
11924;SDS011;6022;48.768;18.608;2023-08-01T05:16:59;1.40;;;0.83;;
11924;SDS011;6022;48.768;18.608;2023-08-01T05:19:26;1.80;;;1.30;;
11924;SDS011;6022;48.768;18.608;2023-08-01T05:21:54;1.07;;;0.83;;
11924;SDS011;6022;48.768;18.608;2023-08-01T05:24:21;0.90;;;0.90;;
11924;SDS011;6022;48.768;18.608;2023-08-01T05:26:48;1.07;;;1.00;;
11924;SDS011;6022;48.768;18.608;2023-08-01T05:29:16;1.03;;;1.00;;
11924;SDS011;6022;48.768;18.608;2023-08-01T05:31:43;1.80;;;1.20;;
11924;SDS011;6022;48.768;18.608;2023-08-01T05:34:10;0.60;;;0.60;;
11924;SDS011;6022;48.768;18.608;2023-08-01T05:36:38;1.47;;;1.30;;
11924;SDS011;6022;48.768;18.608;2023-08-01T05:39:06;1.30;;;1.20;;
11924;SDS011;6022;48.768;18.608;2023-08-01T05:42:04;2.27;;;1.07;;
11924;SDS011;6022;48.768;18.608;2023-08-01T05:44:42;1.40;;;1.30;;
11924;SDS011;6022;48.768;18.608;2023-08-01T05:47:19;1.93;;;1.00;;
11924;SDS011;6022;48.768;18.608;2023-08-01T05:49:59;4.63;;;1.20;;
11924;SDS011;6022;48.768;18.608;2023-08-01T05:52:29;2.00;;;1.10;;
11924;SDS011;6022;48.768;18.608;2023-08-01T05:55:08;1.60;;;1.50;;
11924;SDS011;6022;48.768;18.608;2023-08-01T05:57:46;2.53;;;1.00;;
11924;SDS011;6022;48.768;18.608;2023-08-01T06:00:28;1.00;;;1.00;;
11924;SDS011;6022;48.768;18.608;2023-08-01T06:03:04;1.33;;;1.00;;
11924;SDS011;6022;48.768;18.608;2023-08-01T06:05:39;1.93;;;1.00;;
11924;SDS011;6022;48.768;18.608;2023-08-01T06:08:13;12.20;;;1.23;;
11924;SDS011;6022;48.768;18.608;2023-08-01T06:10:53;1.13;;;1.13;;
11924;SDS011;6022;48.768;18.608;2023-08-01T06:13:29;1.43;;;0.93;;
11924;SDS011;6022;48.768;18.608;2023-08-01T06:16:03;1.77;;;1.40;;
11924;SDS011;6022;48.768;18.608;2023-08-01T06:19:05;1.87;;;1.07;;
11924;SDS011;6022;48.768;18.608;2023-08-01T06:21:36;1.83;;;1.40;;
11924;SDS011;6022;48.768;18.608;2023-08-01T06:24:29;1.20;;;1.10;;
11924;SDS011;6022;48.768;18.608;2023-08-01T06:27:12;1.00;;;0.70;;
11924;SDS011;6022;48.768;18.608;2023-08-01T06:29:54;1.63;;;0.97;;
11924;SDS011;6022;48.768;18.608;2023-08-01T06:32:25;2.33;;;2.10;;
11924;SDS011;6022;48.768;18.608;2023-08-01T06:34:59;2.43;;;1.27;;
11924;SDS011;6022;48.768;18.608;2023-08-01T06:37:26;5.90;;;1.63;;
11924;SDS011;6022;48.768;18.608;2023-08-01T06:39:57;1.90;;;0.93;;
11924;SDS011;6022;48.768;18.608;2023-08-01T06:42:25;1.30;;;1.20;;
11924;SDS011;6022;48.768;18.608;2023-08-01T06:44:56;2.60;;;1.20;;
11924;SDS011;6022;48.768;18.608;2023-08-01T06:47:24;1.13;;;0.77;;
11924;SDS011;6022;48.768;18.608;2023-08-01T06:49:51;1.90;;;1.47;;
11924;SDS011;6022;48.768;18.608;2023-08-01T06:52:22;2.23;;;1.50;;
11924;SDS011;6022;48.768;18.608;2023-08-01T06:54:49;2.37;;;1.57;;
11924;SDS011;6022;48.768;18.608;2023-08-01T06:57:19;1.37;;;1.17;;
11924;SDS011;6022;48.768;18.608;2023-08-01T06:59:57;1.10;;;1.03;;
11924;SDS011;6022;48.768;18.608;2023-08-01T07:02:27;3.23;;;1.07;;
11924;SDS011;6022;48.768;18.608;2023-08-01T07:04:54;1.37;;;1.27;;
11924;SDS011;6022;48.768;18.608;2023-08-01T07:07:24;3.13;;;1.27;;
11924;SDS011;6022;48.768;18.608;2023-08-01T07:09:51;3.40;;;1.33;;
11924;SDS011;6022;48.768;18.608;2023-08-01T07:12:21;0.93;;;0.90;;
11924;SDS011;6022;48.768;18.608;2023-08-01T07:14:56;2.57;;;1.80;;
11924;SDS011;6022;48.768;18.608;2023-08-01T07:17:27;1.50;;;1.40;;
11924;SDS011;6022;48.768;18.608;2023-08-01T07:20:04;1.10;;;1.03;;
11924;SDS011;6022;48.768;18.608;2023-08-01T07:22:38;0.90;;;0.90;;
11924;SDS011;6022;48.768;18.608;2023-08-01T07:25:05;1.50;;;1.40;;
11924;SDS011;6022;48.768;18.608;2023-08-01T07:27:32;2.50;;;1.07;;
11924;SDS011;6022;48.768;18.608;2023-08-01T07:30:00;3.13;;;1.30;;
11924;SDS011;6022;48.768;18.608;2023-08-01T07:32:28;3.70;;;1.30;;
11924;SDS011;6022;48.768;18.608;2023-08-01T07:34:55;1.10;;;1.00;;
11924;SDS011;6022;48.768;18.608;2023-08-01T07:37:22;1.90;;;1.70;;
11924;SDS011;6022;48.768;18.608;2023-08-01T07:39:50;2.13;;;1.53;;
11924;SDS011;6022;48.768;18.608;2023-08-01T07:42:17;1.53;;;1.03;;
11924;SDS011;6022;48.768;18.608;2023-08-01T07:44:44;1.27;;;1.20;;
11924;SDS011;6022;48.768;18.608;2023-08-01T07:47:11;2.40;;;1.47;;
11924;SDS011;6022;48.768;18.608;2023-08-01T07:49:41;1.70;;;1.60;;
11924;SDS011;6022;48.768;18.608;2023-08-01T07:52:08;2.70;;;1.37;;
11924;SDS011;6022;48.768;18.608;2023-08-01T07:54:37;1.00;;;1.00;;
11924;SDS011;6022;48.768;18.608;2023-08-01T07:57:04;2.60;;;1.00;;
11924;SDS011;6022;48.768;18.608;2023-08-01T07:59:32;2.57;;;1.40;;
11924;SDS011;6022;48.768;18.608;2023-08-01T08:02:00;2.20;;;1.27;;
11924;SDS011;6022;48.768;18.608;2023-08-01T08:04:27;2.43;;;1.50;;
11924;SDS011;6022;48.768;18.608;2023-08-01T08:06:55;0.80;;;0.80;;
11924;SDS011;6022;48.768;18.608;2023-08-01T08:09:26;0.97;;;0.97;;
11924;SDS011;6022;48.768;18.608;2023-08-01T08:11:53;1.93;;;1.17;;
11924;SDS011;6022;48.768;18.608;2023-08-01T08:14:20;3.37;;;1.53;;
11924;SDS011;6022;48.768;18.608;2023-08-01T08:16:50;2.30;;;1.37;;
11924;SDS011;6022;48.768;18.608;2023-08-01T08:19:17;1.97;;;1.47;;
11924;SDS011;6022;48.768;18.608;2023-08-01T08:21:44;2.07;;;1.37;;
11924;SDS011;6022;48.768;18.608;2023-08-01T08:24:12;2.20;;;1.30;;
11924;SDS011;6022;48.768;18.608;2023-08-01T08:26:40;1.57;;;1.47;;
11924;SDS011;6022;48.768;18.608;2023-08-01T08:29:09;3.00;;;1.97;;
11924;SDS011;6022;48.768;18.608;2023-08-01T08:31:37;1.40;;;1.23;;
11924;SDS011;6022;48.768;18.608;2023-08-01T08:34:04;1.30;;;1.20;;
11924;SDS011;6022;48.768;18.608;2023-08-01T08:36:32;4.67;;;1.67;;
11924;SDS011;6022;48.768;18.608;2023-08-01T08:38:59;1.10;;;0.97;;
11924;SDS011;6022;48.768;18.608;2023-08-01T08:41:27;1.40;;;1.30;;
11924;SDS011;6022;48.768;18.608;2023-08-01T08:43:58;1.60;;;1.20;;
11924;SDS011;6022;48.768;18.608;2023-08-01T08:46:52;2.47;;;1.40;;
11924;SDS011;6022;48.768;18.608;2023-08-01T08:49:35;1.37;;;1.30;;
11924;SDS011;6022;48.768;18.608;2023-08-01T08:52:04;1.27;;;1.17;;
11924;SDS011;6022;48.768;18.608;2023-08-01T08:54:41;1.37;;;0.80;;
11924;SDS011;6022;48.768;18.608;2023-08-01T08:57:09;1.07;;;1.00;;
11924;SDS011;6022;48.768;18.608;2023-08-01T08:59:37;1.87;;;1.23;;
11924;SDS011;6022;48.768;18.608;2023-08-01T09:02:05;2.33;;;2.13;;
11924;SDS011;6022;48.768;18.608;2023-08-01T09:04:33;1.97;;;1.17;;
11924;SDS011;6022;48.768;18.608;2023-08-01T09:07:08;1.83;;;1.20;;
11924;SDS011;6022;48.768;18.608;2023-08-01T09:09:37;3.23;;;2.07;;
11924;SDS011;6022;48.768;18.608;2023-08-01T09:12:05;1.37;;;1.03;;
11924;SDS011;6022;48.768;18.608;2023-08-01T09:14:34;2.07;;;1.50;;
11924;SDS011;6022;48.768;18.608;2023-08-01T09:17:11;2.10;;;1.63;;
11924;SDS011;6022;48.768;18.608;2023-08-01T09:19:40;1.87;;;1.50;;
11924;SDS011;6022;48.768;18.608;2023-08-01T09:22:11;1.10;;;1.00;;
11924;SDS011;6022;48.768;18.608;2023-08-01T09:24:50;0.90;;;0.90;;
11924;SDS011;6022;48.768;18.608;2023-08-01T09:27:20;1.47;;;1.37;;
11924;SDS011;6022;48.768;18.608;2023-08-01T09:29:51;1.57;;;1.33;;
11924;SDS011;6022;48.768;18.608;2023-08-01T09:32:18;2.07;;;1.20;;
11924;SDS011;6022;48.768;18.608;2023-08-01T09:34:58;1.73;;;1.43;;
11924;SDS011;6022;48.768;18.608;2023-08-01T09:37:42;2.17;;;1.83;;
11924;SDS011;6022;48.768;18.608;2023-08-01T09:40:10;2.30;;;1.63;;
11924;SDS011;6022;48.768;18.608;2023-08-01T09:42:38;5.60;;;1.40;;
11924;SDS011;6022;48.768;18.608;2023-08-01T09:45:14;1.97;;;1.50;;
11924;SDS011;6022;48.768;18.608;2023-08-01T09:47:43;6.40;;;2.07;;
11924;SDS011;6022;48.768;18.608;2023-08-01T09:50:22;1.80;;;1.70;;
11924;SDS011;6022;48.768;18.608;2023-08-01T09:52:50;5.07;;;1.50;;
11924;SDS011;6022;48.768;18.608;2023-08-01T09:55:31;1.50;;;1.40;;
11924;SDS011;6022;48.768;18.608;2023-08-01T09:58:00;1.40;;;1.30;;
11924;SDS011;6022;48.768;18.608;2023-08-01T10:00:28;1.47;;;1.37;;
11924;SDS011;6022;48.768;18.608;2023-08-01T10:02:59;2.07;;;1.77;;
11924;SDS011;6022;48.768;18.608;2023-08-01T10:05:29;1.13;;;1.03;;
11924;SDS011;6022;48.768;18.608;2023-08-01T10:07:58;1.37;;;1.27;;
11924;SDS011;6022;48.768;18.608;2023-08-01T10:10:28;6.07;;;1.80;;
11924;SDS011;6022;48.768;18.608;2023-08-01T10:12:56;2.27;;;1.87;;
11924;SDS011;6022;48.768;18.608;2023-08-01T10:15:24;3.77;;;1.80;;
11924;SDS011;6022;48.768;18.608;2023-08-01T10:17:54;1.93;;;1.83;;
11924;SDS011;6022;48.768;18.608;2023-08-01T10:20:25;2.40;;;1.83;;
11924;SDS011;6022;48.768;18.608;2023-08-01T10:22:53;3.03;;;1.80;;
11924;SDS011;6022;48.768;18.608;2023-08-01T10:25:26;1.30;;;1.20;;
11924;SDS011;6022;48.768;18.608;2023-08-01T10:27:57;1.73;;;1.63;;
11924;SDS011;6022;48.768;18.608;2023-08-01T10:30:29;1.90;;;1.47;;
11924;SDS011;6022;48.768;18.608;2023-08-01T10:32:58;6.67;;;2.00;;
11924;SDS011;6022;48.768;18.608;2023-08-01T10:35:34;1.97;;;1.50;;
11924;SDS011;6022;48.768;18.608;2023-08-01T10:38:12;1.53;;;1.43;;
11924;SDS011;6022;48.768;18.608;2023-08-01T10:40:40;1.67;;;1.57;;
11924;SDS011;6022;48.768;18.608;2023-08-01T10:43:21;5.17;;;2.20;;
11924;SDS011;6022;48.768;18.608;2023-08-01T10:46:03;1.87;;;1.57;;
11924;SDS011;6022;48.768;18.608;2023-08-01T10:48:31;1.53;;;1.17;;
11924;SDS011;6022;48.768;18.608;2023-08-01T10:50:58;1.90;;;1.73;;
11924;SDS011;6022;48.768;18.608;2023-08-01T10:53:25;2.40;;;1.57;;
11924;SDS011;6022;48.768;18.608;2023-08-01T10:55:52;2.40;;;1.83;;
11924;SDS011;6022;48.768;18.608;2023-08-01T10:58:19;2.93;;;1.67;;
11924;SDS011;6022;48.768;18.608;2023-08-01T11:00:58;2.33;;;1.23;;
11924;SDS011;6022;48.768;18.608;2023-08-01T11:03:39;0.83;;;0.83;;
11924;SDS011;6022;48.768;18.608;2023-08-01T11:06:08;2.30;;;1.50;;
11924;SDS011;6022;48.768;18.608;2023-08-01T11:08:39;1.93;;;1.37;;
11924;SDS011;6022;48.768;18.608;2023-08-01T11:11:15;1.20;;;1.17;;
11924;SDS011;6022;48.768;18.608;2023-08-01T11:13:55;2.20;;;1.83;;
11924;SDS011;6022;48.768;18.608;2023-08-01T11:16:23;2.63;;;1.77;;
11924;SDS011;6022;48.768;18.608;2023-08-01T11:18:55;3.83;;;1.87;;
11924;SDS011;6022;48.768;18.608;2023-08-01T11:21:26;2.23;;;2.03;;
11924;SDS011;6022;48.768;18.608;2023-08-01T11:23:56;1.73;;;1.63;;
11924;SDS011;6022;48.768;18.608;2023-08-01T11:26:24;2.37;;;1.90;;
11924;SDS011;6022;48.768;18.608;2023-08-01T11:28:52;2.73;;;2.50;;
11924;SDS011;6022;48.768;18.608;2023-08-01T11:31:19;3.73;;;1.93;;
11924;SDS011;6022;48.768;18.608;2023-08-01T11:33:54;3.47;;;2.57;;
11924;SDS011;6022;48.768;18.608;2023-08-01T11:36:26;3.20;;;2.10;;
11924;SDS011;6022;48.768;18.608;2023-08-01T11:38:59;1.70;;;1.60;;
11924;SDS011;6022;48.768;18.608;2023-08-01T11:41:28;4.70;;;2.70;;
11924;SDS011;6022;48.768;18.608;2023-08-01T11:44:00;3.50;;;2.13;;
11924;SDS011;6022;48.768;18.608;2023-08-01T11:46:31;2.77;;;2.57;;
11924;SDS011;6022;48.768;18.608;2023-08-01T11:48:59;3.17;;;2.23;;
11924;SDS011;6022;48.768;18.608;2023-08-01T11:51:27;1.47;;;1.37;;
11924;SDS011;6022;48.768;18.608;2023-08-01T11:54:02;1.57;;;1.47;;
11924;SDS011;6022;48.768;18.608;2023-08-01T11:56:31;1.20;;;1.17;;
11924;SDS011;6022;48.768;18.608;2023-08-01T11:58:58;1.23;;;1.13;;
11924;SDS011;6022;48.768;18.608;2023-08-01T12:01:37;1.13;;;1.10;;
11924;SDS011;6022;48.768;18.608;2023-08-01T12:04:12;1.43;;;1.33;;
11924;SDS011;6022;48.768;18.608;2023-08-01T12:06:54;1.47;;;1.27;;
11924;SDS011;6022;48.768;18.608;2023-08-01T12:09:31;1.60;;;1.50;;
11924;SDS011;6022;48.768;18.608;2023-08-01T12:11:59;1.43;;;1.33;;
11924;SDS011;6022;48.768;18.608;2023-08-01T12:14:30;2.10;;;1.20;;
11924;SDS011;6022;48.768;18.608;2023-08-01T12:17:10;2.57;;;1.53;;
11924;SDS011;6022;48.768;18.608;2023-08-01T12:19:38;2.77;;;1.63;;
11924;SDS011;6022;48.768;18.608;2023-08-01T12:22:05;1.53;;;1.30;;
11924;SDS011;6022;48.768;18.608;2023-08-01T12:24:33;1.60;;;1.50;;
11924;SDS011;6022;48.768;18.608;2023-08-01T12:27:09;3.77;;;2.87;;
11924;SDS011;6022;48.768;18.608;2023-08-01T12:29:36;2.73;;;2.13;;
11924;SDS011;6022;48.768;18.608;2023-08-01T12:32:04;2.27;;;1.57;;
11924;SDS011;6022;48.768;18.608;2023-08-01T12:34:34;1.73;;;1.37;;
11924;SDS011;6022;48.768;18.608;2023-08-01T12:37:02;2.00;;;1.60;;
11924;SDS011;6022;48.768;18.608;2023-08-01T12:39:30;2.53;;;1.80;;
11924;SDS011;6022;48.768;18.608;2023-08-01T12:41:58;1.57;;;1.13;;
11924;SDS011;6022;48.768;18.608;2023-08-01T12:44:25;1.80;;;1.70;;
11924;SDS011;6022;48.768;18.608;2023-08-01T12:46:52;2.27;;;2.03;;
11924;SDS011;6022;48.768;18.608;2023-08-01T12:49:20;1.63;;;1.53;;
11924;SDS011;6022;48.768;18.608;2023-08-01T12:51:48;1.73;;;1.43;;
11924;SDS011;6022;48.768;18.608;2023-08-01T12:54:17;2.83;;;1.90;;
11924;SDS011;6022;48.768;18.608;2023-08-01T12:56:47;2.00;;;1.57;;
11924;SDS011;6022;48.768;18.608;2023-08-01T12:59:14;1.70;;;1.60;;
11924;SDS011;6022;48.768;18.608;2023-08-01T13:01:42;3.47;;;1.53;;
11924;SDS011;6022;48.768;18.608;2023-08-01T13:04:11;2.43;;;2.07;;
11924;SDS011;6022;48.768;18.608;2023-08-01T13:06:39;1.40;;;1.23;;
11924;SDS011;6022;48.768;18.608;2023-08-01T13:09:08;2.67;;;1.90;;
11924;SDS011;6022;48.768;18.608;2023-08-01T13:11:42;3.00;;;1.60;;
11924;SDS011;6022;48.768;18.608;2023-08-01T13:14:10;2.63;;;2.43;;
11924;SDS011;6022;48.768;18.608;2023-08-01T13:16:37;1.67;;;1.47;;
11924;SDS011;6022;48.768;18.608;2023-08-01T13:19:13;2.63;;;1.73;;
11924;SDS011;6022;48.768;18.608;2023-08-01T13:21:41;3.57;;;2.27;;
11924;SDS011;6022;48.768;18.608;2023-08-01T13:24:08;2.87;;;1.63;;
11924;SDS011;6022;48.768;18.608;2023-08-01T13:26:36;2.07;;;1.50;;
11924;SDS011;6022;48.768;18.608;2023-08-01T13:29:04;1.90;;;1.67;;
11924;SDS011;6022;48.768;18.608;2023-08-01T13:31:31;2.47;;;1.77;;
11924;SDS011;6022;48.768;18.608;2023-08-01T13:34:00;2.47;;;1.90;;
11924;SDS011;6022;48.768;18.608;2023-08-01T13:36:27;2.57;;;1.77;;
11924;SDS011;6022;48.768;18.608;2023-08-01T13:38:55;3.03;;;2.57;;
11924;SDS011;6022;48.768;18.608;2023-08-01T13:41:22;3.30;;;2.07;;
11924;SDS011;6022;48.768;18.608;2023-08-01T13:43:51;2.53;;;2.20;;
11924;SDS011;6022;48.768;18.608;2023-08-01T13:46:18;3.07;;;2.17;;
11924;SDS011;6022;48.768;18.608;2023-08-01T13:48:59;1.63;;;1.30;;
11924;SDS011;6022;48.768;18.608;2023-08-01T13:51:26;2.80;;;2.07;;
11924;SDS011;6022;48.768;18.608;2023-08-01T13:53:58;1.33;;;1.23;;
11924;SDS011;6022;48.768;18.608;2023-08-01T13:56:25;3.97;;;2.03;;
11924;SDS011;6022;48.768;18.608;2023-08-01T13:58:53;3.60;;;2.53;;
11924;SDS011;6022;48.768;18.608;2023-08-01T14:01:20;1.60;;;1.37;;
11924;SDS011;6022;48.768;18.608;2023-08-01T14:03:48;2.17;;;1.70;;
11924;SDS011;6022;48.768;18.608;2023-08-01T14:06:16;2.30;;;1.90;;
11924;SDS011;6022;48.768;18.608;2023-08-01T14:08:43;1.90;;;1.80;;
11924;SDS011;6022;48.768;18.608;2023-08-01T14:11:11;2.80;;;1.83;;
11924;SDS011;6022;48.768;18.608;2023-08-01T14:13:38;1.77;;;1.20;;
11924;SDS011;6022;48.768;18.608;2023-08-01T14:16:07;2.03;;;1.93;;
11924;SDS011;6022;48.768;18.608;2023-08-01T14:18:34;3.17;;;1.83;;
11924;SDS011;6022;48.768;18.608;2023-08-01T14:21:05;2.23;;;1.90;;
11924;SDS011;6022;48.768;18.608;2023-08-01T14:23:32;2.80;;;2.13;;
11924;SDS011;6022;48.768;18.608;2023-08-01T14:26:00;3.57;;;2.10;;
11924;SDS011;6022;48.768;18.608;2023-08-01T14:28:27;2.00;;;1.37;;
11924;SDS011;6022;48.768;18.608;2023-08-01T14:30:55;2.07;;;1.90;;
11924;SDS011;6022;48.768;18.608;2023-08-01T14:33:22;2.07;;;1.83;;
11924;SDS011;6022;48.768;18.608;2023-08-01T14:35:50;2.67;;;1.63;;
11924;SDS011;6022;48.768;18.608;2023-08-01T14:38:17;1.77;;;1.67;;
11924;SDS011;6022;48.768;18.608;2023-08-01T14:40:45;1.67;;;1.57;;
11924;SDS011;6022;48.768;18.608;2023-08-01T14:43:34;2.60;;;1.77;;
11924;SDS011;6022;48.768;18.608;2023-08-01T14:46:02;2.13;;;1.93;;
11924;SDS011;6022;48.768;18.608;2023-08-01T14:48:30;3.00;;;2.33;;
11924;SDS011;6022;48.768;18.608;2023-08-01T14:50:57;1.57;;;1.47;;
11924;SDS011;6022;48.768;18.608;2023-08-01T14:53:24;2.33;;;1.53;;
11924;SDS011;6022;48.768;18.608;2023-08-01T14:55:55;2.50;;;1.90;;
11924;SDS011;6022;48.768;18.608;2023-08-01T14:58:26;1.77;;;1.67;;
11924;SDS011;6022;48.768;18.608;2023-08-01T15:00:53;2.40;;;1.93;;
11924;SDS011;6022;48.768;18.608;2023-08-01T15:03:21;2.30;;;1.73;;
11924;SDS011;6022;48.768;18.608;2023-08-01T15:05:48;1.33;;;1.27;;
11924;SDS011;6022;48.768;18.608;2023-08-01T15:08:16;2.23;;;2.03;;
11924;SDS011;6022;48.768;18.608;2023-08-01T15:10:44;7.87;;;3.20;;
11924;SDS011;6022;48.768;18.608;2023-08-01T15:13:11;4.93;;;2.97;;
11924;SDS011;6022;48.768;18.608;2023-08-01T15:15:39;2.80;;;2.53;;
11924;SDS011;6022;48.768;18.608;2023-08-01T15:18:07;2.93;;;2.57;;